Fort Indiantown, Pennsylvania
Current Conditions -  °F | °C
As of 10:58 PM on Tuesday 21 Oct 2014 (Local Time) from KMUI Reporting Station
Overcast Overcast  
Wind Chill: 56°   Ceiling: 7000
Heat Index: 56°   Visibility: 10mi
Dew Point: 53°   Wind: 2mph
Humidity: 89%   Direction: NA
Pressure: 29.92"   Gusts: NA
Location:  40.3819°N, 76.5718°W
Report Text: KMUI 220258Z AUTO VRB02KT 10SM OVC070 13/11 A2992 RMK AO2 SLP135 T01310114 52013 $
Loading
Personal Weather Stations






























Interactive Weather Map
Tropical Storm Tracking
New forecast layout! Learn more

10-Day Weather Forecast

Advertisements
Track Severe Weather on mobile